Flight Track Log - Related Links

Times and Time Zones

All times are in EDT time to prevent confusion due to time zone crossing. See the RPA3321 flight status page for this flight to view local times or setup timezone preferences in your user account.

Time Position Orientation Groundspeed Altitude Reporting Facility
EDT Latitude Longitude Course Direction KTS MPH feet Rate Location/Type
Tue 05:48:36 AM 42.7672 -73.8061 172° South 154 177 1,400  Level Boston Center
Tue 05:50:01 AM 42.8247 -73.8753 319° Northwest 238 274 4,300 2,417 Climbing Boston Center
Tue 05:50:55 AM 42.8681 -73.9217 322° Northwest 254 292 7,000 3,000 Climbing Boston Center
Tue 05:51:00 AM 42.3927 -74.1176 172° South  Level Estimated
Tue 05:51:55 AM 42.9233 -73.9911 317° Northwest 254 292 10,000  Level Boston Center
Tue 05:52:00 AM 42.3317 -73.9997 125° Southeast  Level FlightAware Approximate
Tue 05:52:55 AM 42.9367 -74.0850 281° West 267 307 12,000  Level Boston Center
Tue 05:53:00 AM 42.2440 -74.0812 172° South  Level Estimated
Tue 05:53:55 AM 42.8875 -74.1658 230° Southwest 261 300 14,600  Level Boston Center
Tue 05:54:55 AM 42.8047 -74.1239 160° South 237 273 17,000 2,250 Climbing Boston Center
Tue 05:55:55 AM 42.7075 -74.0789 161° South 307 353 19,100 1,850 Climbing Boston Center
Tue 05:56:55 AM 42.6103 -74.0311 160° South 345 397 20,700 1,600 Climbing Boston Center
Tue 05:57:55 AM 42.5211 -73.9867 160° South 366 421 22,300 1,500 Climbing Boston Center
Tue 05:58:55 AM 42.4219 -73.9336 158° South 382 440 23,700 1,300 Climbing Boston Center
Tue 05:59:55 AM 42.3369 -73.8922 160° South 394 453 24,900 1,150 Climbing Boston Center
Tue 06:00:55 AM 42.2106 -73.8275 159° South 400 460 26,000 550 Climbing Boston Center
Tue 06:01:55 AM 42.1069 -73.7778 160° South 406 467 26,000  Level Boston Center
Tue 06:02:55 AM 42.0075 -73.7253 159° South 401 461 26,000  Level Boston Center
Tue 06:03:55 AM 41.9222 -73.7069 171° South 395 455 26,000  Level Boston Center
Tue 06:05:51 AM 41.6992 -73.7328 185° South 373 429 26,000  Level New York Center
Tue 06:06:51 AM 41.5989 -73.7450 185° South 368 423 26,000  Level New York Center
Tue 06:07:49 AM 41.5008 -73.7544 184° South 362 417 26,000  Level New York Center
Tue 06:08:49 AM 41.4025 -73.7694 187° South 367 422 26,000  Level New York Center
Tue 06:09:49 AM 41.3022 -73.7814 185° South 367 422 26,000  Level New York Center
Tue 06:10:49 AM 41.2239 -73.8386 209° Southwest 335 386 26,000  Level New York Center
Tue 06:11:50 AM 41.1611 -73.9267 227° Southwest 323 372 26,000  Level New York Center
Tue 06:12:50 AM 41.1025 -74.0119 228° Southwest 323 372 26,000  Level New York Center
Tue 06:13:51 AM 41.0419 -74.0972 227° Southwest 323 372 26,000  Level New York Center
Tue 06:14:50 AM 40.9811 -74.1847 227° Southwest 329 379 26,000  Level New York Center
Tue 06:15:49 AM 40.9158 -74.2722 225° Southwest 334 384 26,000  Level New York Center
Tue 06:16:51 AM 40.8572 -74.3569 228° Southwest 334 384 26,000  Level New York Center
Tue 06:17:49 AM 40.7942 -74.4442 226° Southwest 334 384 26,000  Level New York Center
Tue 06:18:49 AM 40.7308 -74.5311 226° Southwest 334 384 26,000  Level New York Center
Tue 06:19:50 AM 40.6697 -74.6178 227° Southwest 334 384 26,000  Level New York Center
Tue 06:20:50 AM 40.6106 -74.7047 228° Southwest 334 384 26,000  Level New York Center
Tue 06:21:50 AM 40.5494 -74.7914 227° Southwest 334 384 26,000  Level New York Center
Tue 06:22:51 AM 40.4903 -74.8725 226° Southwest 334 384 26,000 -397 Level New York Center
Tue 06:23:51 AM 40.4353 -74.9539 228° Southwest 334 384 25,200 -1,017 Descending New York Center
Tue 06:24:49 AM 40.3761 -75.0375 227° Southwest 334 384 24,000 -1,169 Descending New York Center
Tue 06:25:49 AM 40.3167 -75.1208 227° Southwest 329 379 22,900 -992 Descending New York Center
Tue 06:26:50 AM 40.2531 -75.2094 227° Southwest 329 379 22,000 -446 Descending New York Center
Tue 06:27:50 AM 40.1936 -75.2953 228° Southwest 334 384 22,000  Level New York Center
Tue 06:28:51 AM 40.1319 -75.3808 227° Southwest 334 384 22,000  Level New York Center
Tue 06:29:51 AM 40.0700 -75.4689 227° Southwest 334 384 22,000  Level New York Center
Tue 06:30:49 AM 40.0061 -75.5539 226° Southwest 334 384 22,000  Level New York Center
Tue 06:31:50 AM 39.9464 -75.6367 227° Southwest 334 384 22,000  Level New York Center
Tue 06:32:51 AM 39.8925 -75.7275 232° Southwest 334 384 22,000  Level New York Center
Tue 06:33:49 AM 39.8406 -75.8239 235° Southwest 328 377 22,000  Level New York Center
Tue 06:34:49 AM 39.7867 -75.9147 232° Southwest 328 377 22,000 -944 Level New York Center
Tue 06:36:47 AM 39.6667 -76.1000 230° Southwest 314 361 19,200 -1,652 Descending Potomac TRACON
Tue 06:37:47 AM 39.6167 -76.1833 232° Southwest 307 353 17,100 -1,950 Descending Potomac TRACON
Tue 06:38:47 AM 39.5500 -76.2667 224° Southwest 302 348 15,300 -1,842 Descending Potomac TRACON
Tue 06:39:41 AM 39.5000 -76.3333 226° Southwest 289 333 13,600 -1,778 Descending Potomac TRACON
Tue 06:40:35 AM 39.4667 -76.4000 237° Southwest 278 320 12,100 -842 Descending Potomac TRACON
Tue 06:41:35 AM 39.4000 -76.4667 218° Southwest 283 326 12,000 -53 Descending Potomac TRACON
Tue 06:42:29 AM 39.3500 -76.5167 218° Southwest 279 321 12,000 -368 Level Potomac TRACON
Tue 06:43:29 AM 39.2833 -76.5667 210° Southwest 282 325 11,300 -950 Descending Potomac TRACON
Tue 06:44:29 AM 39.2167 -76.6333 218° Southwest 281 323 10,100 -678 Descending Potomac TRACON
Tue 06:45:24 AM 39.1667 -76.6833 218° Southwest 279 321 10,000 -104 Descending Potomac TRACON
Tue 06:46:24 AM 39.1333 -76.7833 247° West 274 315 9,900 -650 Descending Potomac TRACON
Tue 06:47:24 AM 39.1000 -76.8667 243° Southwest 275 316 8,700 -900 Descending Potomac TRACON
Tue 06:48:24 AM 39.0833 -76.9667 258° West 275 316 8,100 -950 Descending Potomac TRACON
Tue 06:49:24 AM 39.0500 -77.0500 243° Southwest 269 310 6,800 -1,250 Descending Potomac TRACON
Tue 06:50:24 AM 39.0333 -77.1333 256° West 226 260 5,600 -947 Descending Potomac TRACON
Tue 06:51:18 AM 39.0167 -77.1833 247° West 187 215 5,000 -1,105 Descending Potomac TRACON
Tue 06:52:18 AM 38.9667 -77.1833 180° South 193 222 3,500 -1,500 Descending Potomac TRACON

Login

Don't have an account? Register now (free) for customized features, flight alerts, and more!